Time;durP1;ratioP1;P1;durP2;ratioP2;P2;SDS_P1;SDS_P2;PMS_P1;PMS_P2;Temp;Humidity;BMP_temperature;BMP_pressure;BME280_temperature;BME280_humidity;BME280_pressure;Samples;Min_cycle;Max_cycle;Signal;HPM_P1;HPM_P2
2023/06/30 00:00:25;;;;;;;;;13.25;13.00;;;;;-143.57;100.00;65101.44;5124272;27;45341;-42
2023/06/30 00:02:51;;;;;;;;;18.50;14.75;;;;;-143.57;100.00;65101.44;5124806;27;45408;-43
2023/06/30 00:05:16;;;;;;;;;16.25;15.75;;;;;-143.57;100.00;65101.44;5123137;27;45444;-42
2023/06/30 00:07:45;;;;;;;;;17.75;16.50;;;;;-143.57;100.00;65101.44;5124311;27;45396;-42
2023/06/30 00:10:11;;;;;;;;;17.00;15.00;;;;;-143.57;100.00;65101.44;5124360;27;45386;-43
2023/06/30 00:12:36;;;;;;;;;12.00;10.75;;;;;-143.57;100.00;65101.44;5124334;27;45223;-43
2023/06/30 00:15:02;;;;;;;;;6.00;6.00;;;;;-143.57;100.00;65101.44;5124144;27;46034;-42
2023/06/30 00:17:27;;;;;;;;;9.00;6.75;;;;;-143.57;100.00;65101.44;5124216;27;45366;-43
2023/06/30 00:19:53;;;;;;;;;5.75;5.75;;;;;-143.57;100.00;65101.44;5124324;27;45338;-43
2023/06/30 00:22:21;;;;;;;;;8.00;8.00;;;;;-143.57;100.00;65101.44;5124631;27;45362;-41
2023/06/30 00:24:49;;;;;;;;;11.75;8.25;;;;;-143.57;100.00;65101.44;5123932;27;46785;-42
2023/06/30 00:27:14;;;;;;;;;7.75;7.75;;;;;-143.57;100.00;65101.44;5123931;27;45481;-44
2023/06/30 00:29:39;;;;;;;;;5.75;5.75;;;;;-143.57;100.00;65101.44;5123912;27;45448;-43
2023/06/30 00:32:05;;;;;;;;;10.50;8.25;;;;;-143.57;100.00;65101.44;5124128;27;45391;-43
2023/06/30 00:34:30;;;;;;;;;11.50;8.00;;;;;-143.57;100.00;65101.44;5123917;27;45959;-44
2023/06/30 00:36:56;;;;;;;;;9.00;7.00;;;;;-143.57;100.00;65101.44;5123837;27;45708;-44
2023/06/30 00:39:22;;;;;;;;;9.75;9.75;;;;;-143.57;100.00;65101.44;5123878;27;45379;-43
2023/06/30 00:41:47;;;;;;;;;15.50;12.50;;;;;-143.57;100.00;65101.44;5124477;27;45310;-45
2023/06/30 00:44:13;;;;;;;;;12.75;10.50;;;;;-143.57;100.00;65101.44;5123565;27;46025;-43
2023/06/30 00:46:38;;;;;;;;;14.75;10.75;;;;;-143.57;100.00;65101.44;5124028;27;45264;-45
2023/06/30 00:49:04;;;;;;;;;11.50;11.50;;;;;-143.57;100.00;65101.44;5124013;27;46117;-44
2023/06/30 00:51:29;;;;;;;;;17.75;13.25;;;;;-143.57;100.00;65101.44;5121981;27;45391;-45
2023/06/30 00:53:55;;;;;;;;;20.67;19.00;;;;;-143.57;100.00;65101.44;5120234;27;46055;-44
2023/06/30 00:56:20;;;;;;;;;23.67;20.33;;;;;-143.57;100.00;65101.44;5120294;27;45398;-43
2023/06/30 00:58:46;;;;;;;;;18.33;18.00;;;;;-143.57;100.00;65101.44;5120432;27;45739;-42
2023/06/30 01:01:38;;;;;;;;;27.67;24.00;;;;;-143.57;100.00;65101.44;5120600;27;45379;-46
2023/06/30 01:04:31;;;;;;;;;28.67;28.67;;;;;-143.57;100.00;65101.44;5120065;27;45509;-44
2023/06/30 01:07:25;;;;;;;;;43.00;35.00;;;;;-143.57;100.00;65101.44;5119980;27;45321;-42
2023/06/30 01:10:03;;;;;;;;;60.67;46.67;;;;;-143.57;100.00;65101.44;5116791;27;45252;-42
2023/06/30 01:12:28;;;;;;;;;46.67;37.00;;;;;-143.57;100.00;65101.44;5120369;27;45228;-42
2023/06/30 01:14:55;;;;;;;;;31.33;26.67;;;;;-143.57;100.00;65101.44;5119866;27;46234;-42
2023/06/30 01:17:24;;;;;;;;;25.00;20.67;;;;;-143.57;100.00;65101.44;5120026;27;45431;-43
2023/06/30 01:19:53;;;;;;;;;33.33;28.33;;;;;-143.57;100.00;65101.44;5120014;27;45335;-43
2023/06/30 01:22:25;;;;;;;;;28.67;25.67;;;;;-143.57;100.00;65101.44;5120084;27;45313;-44
2023/06/30 01:24:56;;;;;;;;;18.00;17.00;;;;;-143.57;100.00;65101.44;5119663;27;46081;-41
2023/06/30 01:27:22;;;;;;;;;5.00;3.33;;;;;-143.57;100.00;65101.44;5119813;27;45410;-41
2023/06/30 01:29:49;;;;;;;;;17.75;11.75;;;;;-143.57;100.00;65101.44;5119643;27;45496;-42
2023/06/30 01:32:17;;;;;;;;;12.25;10.75;;;;;-143.57;100.00;65101.44;5120250;27;45403;-41
2023/06/30 01:34:44;;;;;;;;;18.00;18.00;;;;;-143.57;100.00;65101.44;5119711;27;46107;-41
2023/06/30 01:37:10;;;;;;;;;22.25;19.25;;;;;-143.57;100.00;65101.44;5119009;27;45302;-39
2023/06/30 01:39:35;;;;;;;;;18.50;17.00;;;;;-143.57;100.00;65101.44;5119989;27;45414;-39
2023/06/30 01:42:01;;;;;;;;;10.00;10.00;;;;;-143.57;100.00;65101.44;5119701;27;45270;-40
2023/06/30 01:44:27;;;;;;;;;7.50;6.75;;;;;-143.57;100.00;65101.44;5119635;27;45981;-40
2023/06/30 01:46:52;;;;;;;;;10.00;8.25;;;;;-143.57;100.00;65101.44;5119691;27;45565;-41
2023/06/30 01:49:18;;;;;;;;;13.25;8.25;;;;;-143.57;100.00;65101.44;5119854;27;45420;-42
2023/06/30 01:51:43;;;;;;;;;13.00;10.25;;;;;-143.57;100.00;65101.44;5101538;27;45341;-43
2023/06/30 01:54:09;;;;;;;;;7.75;6.00;;;;;-143.57;100.00;65101.44;5119423;27;46205;-43
2023/06/30 01:56:35;;;;;;;;;11.00;7.00;;;;;-143.57;100.00;65101.44;5120183;27;45334;-42
2023/06/30 01:59:00;;;;;;;;;6.75;5.00;;;;;-143.57;100.00;65101.44;5121658;27;45498;-41
2023/06/30 02:01:26;;;;;;;;;13.00;11.25;;;;;-143.57;100.00;65101.44;5121356;27;45562;-41
2023/06/30 02:03:51;;;;;;;;;12.25;10.50;;;;;-143.57;100.00;65101.44;5119578;27;46303;-40
2023/06/30 02:06:17;;;;;;;;;8.00;6.00;;;;;-143.57;100.00;65101.44;5119640;27;45316;-41
2023/06/30 02:08:42;;;;;;;;;8.75;8.25;;;;;-143.57;100.00;65101.44;5119665;27;45364;-41
2023/06/30 02:11:07;;;;;;;;;8.25;8.25;;;;;-143.57;100.00;65101.44;5120030;27;45422;-41
2023/06/30 02:13:33;;;;;;;;;6.50;6.50;;;;;-143.57;100.00;65101.44;5119168;27;46107;-42
2023/06/30 02:15:58;;;;;;;;;7.25;5.75;;;;;-143.57;100.00;65101.44;5119252;27;45475;-43
2023/06/30 02:18:24;;;;;;;;;7.00;5.00;;;;;-143.57;100.00;65101.44;5119295;27;45249;-42
2023/06/30 02:20:50;;;;;;;;;6.50;6.50;;;;;-143.57;100.00;65101.44;5119472;27;45561;-41
2023/06/30 02:23:16;;;;;;;;;8.00;6.25;;;;;-143.57;100.00;65101.44;5118961;27;46979;-40
2023/06/30 02:25:41;;;;;;;;;13.25;7.00;;;;;-143.57;100.00;65101.44;5118828;27;45407;-42
2023/06/30 02:28:06;;;;;;;;;8.25;6.50;;;;;-143.57;100.00;65101.44;5118742;27;45458;-39
2023/06/30 02:30:32;;;;;;;;;8.00;7.00;;;;;-143.57;100.00;65101.44;5118929;27;45306;-41
2023/06/30 02:32:58;;;;;;;;;10.75;9.00;;;;;-143.57;100.00;65101.44;5118819;27;45303;-40
2023/06/30 02:35:24;;;;;;;;;7.50;6.00;;;;;-143.57;100.00;65101.44;5118782;27;45363;-40
2023/06/30 02:37:50;;;;;;;;;8.00;6.00;;;;;-143.57;100.00;65101.44;5118703;27;45190;-40
2023/06/30 02:40:15;;;;;;;;;8.00;5.50;;;;;-143.57;100.00;65101.44;5119135;27;45147;-44
2023/06/30 02:42:40;;;;;;;;;4.50;3.50;;;;;-143.57;100.00;65101.44;5118760;27;45291;-45
2023/06/30 02:45:06;;;;;;;;;4.75;3.00;;;;;-143.57;100.00;65101.44;5117989;27;48516;-43
2023/06/30 02:47:32;;;;;;;;;4.25;4.00;;;;;-143.57;100.00;65101.44;5118966;27;45354;-43
2023/06/30 02:49:57;;;;;;;;;3.75;3.00;;;;;-143.57;100.00;65101.44;5118911;27;45386;-43
2023/06/30 02:52:22;;;;;;;;;5.00;4.00;;;;;-143.57;100.00;65101.44;5118579;27;46192;-41
2023/06/30 02:54:48;;;;;;;;;2.75;2.75;;;;;-143.57;100.00;65101.44;5118548;27;45415;-44
2023/06/30 02:57:13;;;;;;;;;4.75;4.00;;;;;-143.57;100.00;65101.44;5118830;27;45568;-43
2023/06/30 02:59:39;;;;;;;;;7.00;5.50;;;;;-143.57;100.00;65101.44;5118595;27;45243;-43
2023/06/30 03:02:04;;;;;;;;;5.75;3.75;;;;;-143.57;100.00;65101.44;5118643;27;46278;-43
2023/06/30 03:04:29;;;;;;;;;46.33;37.67;;;;;-143.57;100.00;65101.44;5099907;27;45471;-41
2023/06/30 03:06:55;;;;;;;;;6.50;6.50;;;;;-143.57;100.00;65101.44;5118464;27;45307;-42
2023/06/30 03:09:20;;;;;;;;;6.00;4.50;;;;;-143.57;100.00;65101.44;5118502;27;45488;-45
2023/06/30 03:11:45;;;;;;;;;3.00;3.00;;;;;-143.57;100.00;65101.44;5118271;27;45380;-44
2023/06/30 03:14:11;;;;;;;;;4.75;3.25;;;;;-143.57;100.00;65101.44;5118053;27;45313;-42
2023/06/30 03:16:36;;;;;;;;;1.50;1.50;;;;;-143.57;100.00;65101.44;5117636;27;45366;-42
2023/06/30 03:19:02;;;;;;;;;3.00;3.00;;;;;-143.57;100.00;65101.44;5118521;27;45306;-43
2023/06/30 03:21:27;;;;;;;;;3.25;2.00;;;;;-143.57;100.00;65101.44;5117915;27;46315;-43
2023/06/30 03:23:52;;;;;;;;;33.33;28.67;;;;;-143.57;100.00;65101.44;5117779;27;49545;-43
2023/06/30 03:26:18;;;;;;;;;4.25;2.25;;;;;-143.57;100.00;65101.44;5118308;27;45253;-44
2023/06/30 03:28:43;;;;;;;;;1.75;1.75;;;;;-143.57;100.00;65101.44;5118329;27;45510;-41
2023/06/30 03:31:08;;;;;;;;;2.00;2.00;;;;;-143.57;100.00;65101.44;5118113;27;46102;-43
2023/06/30 03:33:34;;;;;;;;;50.67;37.00;;;;;-143.57;100.00;65101.44;5118070;27;45457;-44
2023/06/30 03:36:00;;;;;;;;;45.33;33.33;;;;;-143.57;100.00;65101.44;5118078;27;45280;-41
2023/06/30 03:38:25;;;;;;;;;2.00;2.00;;;;;-143.57;100.00;65101.44;5118542;27;45493;-39
2023/06/30 03:40:50;;;;;;;;;2.75;2.75;;;;;-143.57;100.00;65101.44;5117868;27;46605;-40
2023/06/30 03:43:15;;;;;;;;;54.33;37.33;;;;;-143.57;100.00;65101.44;5118026;27;45315;-43
2023/06/30 03:45:41;;;;;;;;;25.00;20.00;;;;;-143.57;100.00;65101.44;5118012;27;45373;-40
2023/06/30 03:48:06;;;;;;;;;4.00;4.00;;;;;-143.57;100.00;65101.44;5118216;27;45282;-41
2023/06/30 03:50:31;;;;;;;;;3.00;3.00;;;;;-143.57;100.00;65101.44;5099443;27;46401;-42
2023/06/30 03:52:57;;;;;;;;;3.00;3.00;;;;;-143.57;100.00;65101.44;5117914;27;45217;-41
2023/06/30 03:55:22;;;;;;;;;3.50;2.00;;;;;-143.57;100.00;65101.44;5117880;27;45390;-40
2023/06/30 03:57:48;;;;;;;;;4.25;2.50;;;;;-143.57;100.00;65101.44;5118256;27;45266;-39
2023/06/30 04:00:14;;;;;;;;;3.25;2.00;;;;;-143.57;100.00;65101.44;5117413;27;46294;-40
2023/06/30 04:02:39;;;;;;;;;2.00;2.00;;;;;-143.57;100.00;65101.44;5117717;27;45289;-40
2023/06/30 04:05:05;;;;;;;;;2.00;2.00;;;;;-143.57;100.00;65101.44;5117685;27;45306;-41
2023/06/30 04:07:31;;;;;;;;;3.00;2.00;;;;;-143.57;100.00;65101.44;5117665;27;45467;-44
2023/06/30 04:09:57;;;;;;;;;4.25;2.25;;;;;-143.57;100.00;65101.44;5117541;27;47077;-40
2023/06/30 04:12:22;;;;;;;;;3.75;2.00;;;;;-143.57;100.00;65101.44;5117614;27;45331;-45
2023/06/30 04:14:48;;;;;;;;;3.25;3.25;;;;;-143.57;100.00;65101.44;5117715;27;45310;-40
2023/06/30 04:17:13;;;;;;;;;2.75;2.00;;;;;-143.57;100.00;65101.44;5117580;27;45471;-41
2023/06/30 04:19:39;;;;;;;;;4.00;2.25;;;;;-143.57;100.00;65101.44;5117289;27;46175;-41
2023/06/30 04:22:04;;;;;;;;;2.50;2.50;;;;;-143.57;100.00;65101.44;5117424;27;45398;-43
2023/06/30 04:24:30;;;;;;;;;3.00;3.00;;;;;-143.57;100.00;65101.44;5117316;27;45395;-40
2023/06/30 04:26:55;;;;;;;;;2.75;1.75;;;;;-143.57;100.00;65101.44;5119265;27;45208;-41
2023/06/30 04:29:20;;;;;;;;;3.50;2.00;;;;;-143.57;100.00;65101.44;5120191;27;51131;-40
2023/06/30 04:31:46;;;;;;;;;3.00;3.00;;;;;-143.57;100.00;65101.44;5120474;27;45422;-41
2023/06/30 04:34:11;;;;;;;;;3.00;1.25;;;;;-143.57;100.00;65101.44;5120894;27;45483;-41
2023/06/30 04:36:36;;;;;;;;;2.50;2.00;;;;;-143.57;100.00;65101.44;5120878;27;45352;-41
2023/06/30 04:39:02;;;;;;;;;3.50;2.25;;;;;-143.57;100.00;65101.44;5120753;27;45334;-41
2023/06/30 04:41:27;;;;;;;;;2.50;2.50;;;;;-143.57;100.00;65101.44;5119916;27;45425;-41
2023/06/30 04:43:52;;;;;;;;;3.25;3.00;;;;;-143.57;100.00;65101.44;5120710;27;45440;-41
2023/06/30 04:46:18;;;;;;;;;2.00;2.00;;;;;-143.57;100.00;65101.44;5120695;27;45443;-41
2023/06/30 04:48:43;;;;;;;;;4.50;3.00;;;;;-143.57;100.00;65101.44;5120561;27;45831;-41
2023/06/30 04:51:08;;;;;;;;;1.00;1.00;;;;;-143.57;100.00;65101.44;5120558;27;45415;-41
2023/06/30 04:53:35;;;;;;;;;2.75;2.25;;;;;-143.57;100.00;65101.44;5120546;27;45301;-41
2023/06/30 04:56:01;;;;;;;;;5.25;3.00;;;;;-143.57;100.00;65101.44;5120659;27;45310;-41
2023/06/30 04:58:26;;;;;;;;;4.75;3.75;;;;;-143.57;100.00;65101.44;5120378;27;45352;-40
2023/06/30 05:00:51;;;;;;;;;3.00;3.00;;;;;-143.57;100.00;65101.44;5120034;27;51026;-40
2023/06/30 05:03:19;;;;;;;;;3.00;3.00;;;;;-143.57;100.00;65101.44;5120682;27;45444;-41
2023/06/30 05:05:44;;;;;;;;;3.00;3.00;;;;;-143.57;100.00;65101.44;5119685;27;45523;-41
2023/06/30 05:08:09;;;;;;;;;2.50;2.00;;;;;-143.57;100.00;65101.44;5120171;27;45952;-40
2023/06/30 05:10:35;;;;;;;;;5.00;4.75;;;;;-143.57;100.00;65101.44;5120402;27;45218;-43
2023/06/30 05:13:00;;;;;;;;;4.00;4.00;;;;;-143.57;100.00;65101.44;5120125;27;45742;-41
2023/06/30 05:15:25;;;;;;;;;6.00;4.50;;;;;-143.57;100.00;65101.44;5120454;27;45303;-40
2023/06/30 05:17:51;;;;;;;;;4.75;3.25;;;;;-143.57;100.00;65101.44;5119706;27;48662;-42
2023/06/30 05:20:16;;;;;;;;;3.50;3.50;;;;;-143.57;100.00;65101.44;5120163;27;45403;-40
2023/06/30 05:22:41;;;;;;;;;3.00;3.00;;;;;-143.57;100.00;65101.44;5120006;27;45280;-40
2023/06/30 05:25:07;;;;;;;;;8.25;4.25;;;;;-143.57;100.00;65101.44;5120051;27;45405;-41
2023/06/30 05:27:32;;;;;;;;;4.00;3.00;;;;;-143.57;100.00;65101.44;5119521;27;46458;-40
2023/06/30 05:29:58;;;;;;;;;5.25;3.75;;;;;-143.57;100.00;65101.44;5119881;27;45386;-39
2023/06/30 05:32:23;;;;;;;;;5.50;4.75;;;;;-143.57;100.00;65101.44;5119879;27;45317;-39
2023/06/30 05:34:51;;;;;;;;;6.00;6.00;;;;;-143.57;100.00;65101.44;5120110;27;45312;-41
2023/06/30 05:37:17;;;;;;;;;8.75;8.75;;;;;-143.57;100.00;65101.44;5119780;27;45402;-41
2023/06/30 05:39:42;;;;;;;;;7.75;7.75;;;;;-143.57;100.00;65101.44;5119586;27;45383;-45
2023/06/30 05:42:08;;;;;;;;;12.00;8.00;;;;;-143.57;100.00;65101.44;5121920;27;45290;-40
2023/06/30 05:44:33;;;;;;;;;7.00;7.00;;;;;-143.57;100.00;65101.44;5121823;27;45341;-40
2023/06/30 05:46:58;;;;;;;;;8.00;6.25;;;;;-143.57;100.00;65101.44;5120271;27;45316;-48
2023/06/30 05:49:25;;;;;;;;;7.25;7.25;;;;;-143.57;100.00;65101.44;5119681;27;45457;-46
2023/06/30 05:51:50;;;;;;;;;7.00;6.00;;;;;-143.57;100.00;65101.44;5119697;27;45324;-44
2023/06/30 05:54:15;;;;;;;;;7.25;6.00;;;;;-143.57;100.00;65101.44;5118948;27;45268;-44
2023/06/30 05:56:41;;;;;;;;;6.00;4.50;;;;;-143.57;100.00;65101.44;5119413;27;46082;-49
2023/06/30 05:59:09;;;;;;;;;7.00;7.00;;;;;-143.57;100.00;65101.44;5119580;27;45330;-44
2023/06/30 06:01:38;;;;;;;;;5.00;5.00;;;;;-143.57;100.00;65101.44;5118455;27;45376;-40
2023/06/30 06:04:08;;;;;;;;;4.75;4.75;;;;;-143.57;100.00;65101.44;5101067;27;45308;-41
2023/06/30 06:06:33;;;;;;;;;8.25;7.50;;;;;-143.57;100.00;65101.44;5119460;27;46368;-42
2023/06/30 06:08:59;;;;;;;;;5.00;5.00;;;;;-143.57;100.00;65101.44;5119207;27;45398;-42
2023/06/30 06:11:24;;;;;;;;;6.25;5.25;;;;;-143.57;100.00;65101.44;5119411;27;45680;-42
2023/06/30 06:13:49;;;;;;;;;6.00;6.00;;;;;-143.57;100.00;65101.44;5119336;27;45429;-44
2023/06/30 06:16:15;;;;;;;;;5.00;4.50;;;;;-143.57;100.00;65101.44;5118731;27;52878;-42
2023/06/30 06:18:40;;;;;;;;;4.75;4.75;;;;;-143.57;100.00;65101.44;5119092;27;45471;-42
2023/06/30 06:21:05;;;;;;;;;4.25;4.25;;;;;-143.57;100.00;65101.44;5118768;27;45446;-42
2023/06/30 06:23:31;;;;;;;;;5.00;4.00;;;;;-143.57;100.00;65101.44;5119279;27;45399;-42
2023/06/30 06:25:56;;;;;;;;;4.00;3.00;;;;;-143.57;100.00;65101.44;5118647;27;46272;-42
2023/06/30 06:28:21;;;;;;;;;3.00;3.00;;;;;-143.57;100.00;65101.44;5118783;27;45245;-42
2023/06/30 06:30:48;;;;;;;;;4.50;4.50;;;;;-143.57;100.00;65101.44;5119045;27;45379;-42
2023/06/30 06:33:13;;;;;;;;;6.25;4.75;;;;;-143.57;100.00;65101.44;5118938;27;45257;-41
2023/06/30 06:35:39;;;;;;;;;4.25;4.25;;;;;-143.57;100.00;65101.44;5118818;27;45348;-42
2023/06/30 06:38:04;;;;;;;;;5.00;3.75;;;;;-143.57;100.00;65101.44;5102606;27;49206;-41
2023/06/30 06:40:32;;;;;;;;;3.00;3.00;;;;;-143.57;100.00;65101.44;5098087;27;45312;-43
2023/06/30 06:42:58;;;;;;;;;6.00;5.00;;;;;-143.57;100.00;65101.44;5098378;27;45216;-42
2023/06/30 06:45:23;;;;;;;;;5.50;4.50;;;;;-143.57;100.00;65101.44;5097758;27;47109;-43
2023/06/30 06:48:20;;;;;;;;;5.00;4.50;;;;;-143.57;100.00;65101.44;5097970;27;45239;-43
2023/06/30 06:50:48;;;;;;;;;6.00;5.20;;;;;-143.57;100.00;65101.44;5096950;27;45344;-43
2023/06/30 06:53:18;;;;;;;;;4.00;4.00;;;;;-143.57;100.00;65101.44;5098314;27;45583;-42
2023/06/30 06:55:44;;;;;;;;;6.20;5.20;;;;;-143.57;100.00;65101.44;5097541;27;46351;-42
2023/06/30 06:58:09;;;;;;;;;6.00;5.00;;;;;-143.57;100.00;65101.44;5097755;27;45285;-42
2023/06/30 07:00:35;;;;;;;;;3.50;3.50;;;;;-143.57;100.00;65101.44;5097886;27;45243;-41
2023/06/30 07:03:00;;;;;;;;;5.00;4.00;;;;;-143.57;100.00;65101.44;5097855;27;45499;-41
2023/06/30 07:05:26;;;;;;;;;3.75;3.00;;;;;-143.57;100.00;65101.44;5079246;27;47276;-43
2023/06/30 07:07:51;;;;;;;;;4.00;2.75;;;;;-143.57;100.00;65101.44;5097321;27;45423;-43
2023/06/30 07:10:16;;;;;;;;;6.00;6.00;;;;;-143.57;100.00;65101.44;5101195;27;45447;-43
2023/06/30 07:12:54;;;;;;;;;4.00;4.00;;;;;-143.57;100.00;65101.44;5105468;27;46120;-44
2023/06/30 07:15:19;;;;;;;;;3.20;3.20;;;;;-143.57;100.00;65101.44;5056648;22;45512;-42
2023/06/30 07:17:44;;;;;;;;;3.50;3.00;;;;;-143.57;100.00;65101.44;5015947;28;45507;-44
2023/06/30 07:20:11;;;;;;;;;3.00;3.00;;;;;-143.57;100.00;65101.44;5016482;28;45461;-43
2023/06/30 07:22:36;;;;;;;;;5.20;2.80;;;;;-143.57;100.00;65101.44;5028206;28;45484;-43
2023/06/30 07:25:03;;;;;;;;;4.00;4.00;;;;;-143.57;100.00;65101.44;5032568;28;46416;-44
2023/06/30 07:27:29;;;;;;;;;4.40;4.00;;;;;-143.57;100.00;65101.44;5032622;28;45753;-42
2023/06/30 07:29:54;;;;;;;;;2.75;2.00;;;;;-143.57;100.00;65101.44;5032875;28;45432;-42
2023/06/30 07:32:20;;;;;;;;;4.00;4.00;;;;;-143.57;100.00;65101.44;5032265;28;45464;-43
2023/06/30 07:34:45;;;;;;;;;2.50;2.25;;;;;-143.57;100.00;65101.44;5035101;28;51566;-43
2023/06/30 07:37:11;;;;;;;;;3.00;3.00;;;;;-143.57;100.00;65101.44;5034845;28;45395;-43
2023/06/30 07:39:36;;;;;;;;;4.00;3.00;;;;;-143.57;100.00;65101.44;5035634;28;45404;-42
2023/06/30 07:42:01;;;;;;;;;3.75;3.75;;;;;-143.57;100.00;65101.44;5036483;28;45504;-41
2023/06/30 07:44:26;;;;;;;;;4.50;2.75;;;;;-143.57;100.00;65101.44;5018364;28;46019;-41
2023/06/30 07:46:52;;;;;;;;;3.00;3.00;;;;;-143.57;100.00;65101.44;5036423;28;45468;-41
2023/06/30 07:49:17;;;;;;;;;3.50;3.00;;;;;-143.57;100.00;65101.44;5036381;28;45433;-43
2023/06/30 07:51:45;;;;;;;;;2.00;2.00;;;;;-143.57;100.00;65101.44;5036127;28;45399;-45
2023/06/30 07:54:10;;;;;;;;;6.00;2.80;;;;;-143.57;100.00;65101.44;5035855;28;47223;-44
2023/06/30 07:56:35;;;;;;;;;3.00;3.00;;;;;-143.57;100.00;65101.44;5035390;28;45392;-46
2023/06/30 07:59:01;;;;;;;;;3.00;3.00;;;;;-143.57;100.00;65101.44;5036351;28;45390;-44
2023/06/30 08:01:26;;;;;;;;;3.00;3.00;;;;;-143.57;100.00;65101.44;5037510;28;45368;-42
2023/06/30 08:03:52;;;;;;;;;2.75;2.75;;;;;-143.57;100.00;65101.44;5038903;28;46026;-43
2023/06/30 08:06:17;;;;;;;;;4.25;3.00;;;;;-143.57;100.00;65101.44;5039491;28;45450;-47
2023/06/30 08:08:42;;;;;;;;;4.50;4.00;;;;;-143.57;100.00;65101.44;5038956;28;45338;-44
2023/06/30 08:11:07;;;;;;;;;3.50;3.00;;;;;-143.57;100.00;65101.44;5040292;28;45415;-43
2023/06/30 08:13:33;;;;;;;;;4.00;4.00;;;;;-143.57;100.00;65101.44;5039186;28;46631;-41
2023/06/30 08:15:58;;;;;;;;;5.00;4.25;;;;;-143.57;100.00;65101.44;5039150;28;45377;-43
2023/06/30 08:18:25;;;;;;;;;4.25;4.25;;;;;-143.57;100.00;65101.44;5039448;28;45711;-42
2023/06/30 08:20:51;;;;;;;;;8.20;8.00;;;;;-143.57;100.00;65101.44;5039549;28;45367;-41
2023/06/30 08:23:16;;;;;;;;;5.50;5.00;;;;;-143.57;100.00;65101.44;5038947;28;45700;-42
2023/06/30 08:25:42;;;;;;;;;3.25;3.25;;;;;-143.57;100.00;65101.44;5039219;28;45391;-42
2023/06/30 08:28:07;;;;;;;;;3.75;3.75;;;;;-143.57;100.00;65101.44;5039205;28;45506;-42
2023/06/30 08:30:32;;;;;;;;;3.50;3.50;;;;;-143.57;100.00;65101.44;5039305;28;45475;-42
2023/06/30 08:32:58;;;;;;;;;8.25;8.25;;;;;-143.57;100.00;65101.44;5038730;28;46511;-42
2023/06/30 08:35:23;;;;;;;;;13.00;10.50;;;;;-143.57;100.00;65101.44;5039244;28;45479;-42
2023/06/30 08:37:48;;;;;;;;;7.00;4.50;;;;;-143.57;100.00;65101.44;5038729;28;45509;-42
2023/06/30 08:40:20;;;;;;;;;3.00;3.00;;;;;-143.57;100.00;65101.44;5038745;28;45867;-43
2023/06/30 08:42:51;;;;;;;;;5.00;3.40;;;;;-143.57;100.00;65101.44;5038773;28;45458;-41
2023/06/30 08:45:18;;;;;;;;;5.00;3.00;;;;;-143.57;100.00;65101.44;5038156;28;45460;-41
2023/06/30 08:47:44;;;;;;;;;2.60;2.00;;;;;-143.57;100.00;65101.44;5038474;28;45239;-40
2023/06/30 08:50:10;;;;;;;;;5.00;5.00;;;;;-143.57;100.00;65101.44;5039094;28;45396;-42
2023/06/30 08:52:35;;;;;;;;;3.00;3.00;;;;;-143.57;100.00;65101.44;5038593;28;45318;-44
2023/06/30 08:55:02;;;;;;;;;3.50;2.00;;;;;-143.57;100.00;65101.44;5038371;28;45439;-43
2023/06/30 08:57:29;;;;;;;;;2.80;2.80;;;;;-143.57;100.00;65101.44;5038297;28;45394;-41
2023/06/30 08:59:54;;;;;;;;;6.40;3.40;;;;;-143.57;100.00;65101.44;5038409;28;45464;-43
2023/06/30 09:02:22;;;;;;;;;4.00;3.50;;;;;-143.57;100.00;65101.44;5037674;28;47149;-44
2023/06/30 09:04:48;;;;;;;;;3.80;2.80;;;;;-143.57;100.00;65101.44;5037633;28;45421;-40
2023/06/30 09:07:25;;;;;;;;;4.60;3.00;;;;;-143.57;100.00;65101.44;5037361;28;45351;-42
2023/06/30 09:09:56;;;;;;;;;3.80;3.20;;;;;-143.57;100.00;65101.44;5038441;28;45438;-42
2023/06/30 09:12:22;;;;;;;;;6.00;3.40;;;;;-143.57;100.00;65101.44;5037238;28;45456;-42
2023/06/30 09:14:51;;;;;;;;;3.60;1.60;;;;;-143.57;100.00;65101.44;5037316;28;45429;-43
2023/06/30 09:17:17;;;;;;;;;3.00;3.00;;;;;-143.57;100.00;65101.44;5037954;28;45340;-43
2023/06/30 09:19:44;;;;;;;;;3.00;3.00;;;;;-143.57;100.00;65101.44;5038038;28;45376;-43
2023/06/30 09:22:11;;;;;;;;;3.40;2.80;;;;;-143.57;100.00;65101.44;5037606;28;46510;-42
2023/06/30 09:24:36;;;;;;;;;5.40;3.00;;;;;-143.57;100.00;65101.44;5037901;28;45517;-44
2023/06/30 09:27:02;;;;;;;;;3.00;3.00;;;;;-143.57;100.00;65101.44;5037895;28;45240;-44
2023/06/30 09:29:33;;;;;;;;;4.00;3.25;;;;;-143.57;100.00;65101.44;5038161;28;45484;-41
2023/06/30 09:32:02;;;;;;;;;3.00;3.00;;;;;-143.57;100.00;65101.44;5037581;28;47134;-43
2023/06/30 09:34:28;;;;;;;;;2.60;2.60;;;;;-143.57;100.00;65101.44;5036680;28;45338;-45
2023/06/30 09:36:54;;;;;;;;;2.00;2.00;;;;;-143.57;100.00;65101.44;5037897;28;45636;-43
2023/06/30 09:39:21;;;;;;;;;2.80;2.80;;;;;-143.57;100.00;65101.44;5037715;28;45482;-42
2023/06/30 09:41:47;;;;;;;;;2.60;2.60;;;;;-143.57;100.00;65101.44;5037426;28;45388;-43
2023/06/30 09:44:17;;;;;;;;;3.00;3.00;;;;;-143.57;100.00;65101.44;5037485;28;45444;-42
2023/06/30 09:46:49;;;;;;;;;2.40;2.40;;;;;-143.57;100.00;65101.44;5037579;28;45283;-44
2023/06/30 09:49:26;;;;;;;;;3.40;3.40;;;;;-143.57;100.00;65101.44;5037621;28;45500;-43
2023/06/30 09:51:52;;;;;;;;;2.20;2.20;;;;;-143.57;100.00;65101.44;5037207;28;46335;-43
2023/06/30 09:54:20;;;;;;;;;1.50;1.50;;;;;-143.57;100.00;65101.44;5037317;28;45322;-44
2023/06/30 09:56:45;;;;;;;;;2.80;2.80;;;;;-143.57;100.00;65101.44;5019936;28;45358;-44
2023/06/30 09:59:11;;;;;;;;;4.00;2.75;;;;;-143.57;100.00;65101.44;5037658;28;45404;-44
2023/06/30 10:01:37;;;;;;;;;4.60;2.80;;;;;-143.57;100.00;65101.44;5037013;28;46145;-43
2023/06/30 10:04:02;;;;;;;;;3.50;2.25;;;;;-143.57;100.00;65101.44;5036856;28;45471;-43
2023/06/30 10:06:28;;;;;;;;;2.00;0.25;;;;;-143.57;100.00;65101.44;5037326;28;45485;-43
2023/06/30 10:08:56;;;;;;;;;4.80;2.60;;;;;-143.57;100.00;65101.44;5037280;28;45353;-44
2023/06/30 10:11:23;;;;;;;;;2.40;2.40;;;;;-143.57;100.00;65101.44;5037289;28;45430;-43
2023/06/30 10:13:52;;;;;;;;;2.60;2.60;;;;;-143.57;100.00;65101.44;5036851;28;45378;-42
2023/06/30 10:16:21;;;;;;;;;2.80;2.80;;;;;-143.57;100.00;65101.44;5036958;28;45451;-42
2023/06/30 10:18:49;;;;;;;;;3.00;3.00;;;;;-143.57;100.00;65101.44;5037178;28;45460;-43
2023/06/30 10:21:14;;;;;;;;;2.80;2.80;;;;;-143.57;100.00;65101.44;5036511;28;47415;-43
2023/06/30 10:23:43;;;;;;;;;3.75;2.00;;;;;-143.57;100.00;65101.44;5036463;28;45384;-43
2023/06/30 10:26:11;;;;;;;;;3.40;3.40;;;;;-143.57;100.00;65101.44;5036944;28;45286;-44
2023/06/30 10:28:36;;;;;;;;;2.40;2.40;;;;;-143.57;100.00;65101.44;5036716;28;45497;-44
2023/06/30 10:31:02;;;;;;;;;2.75;2.00;;;;;-143.57;100.00;65101.44;5036604;28;45454;-42
2023/06/30 10:33:28;;;;;;;;;4.60;4.60;;;;;-143.57;100.00;65101.44;5036547;28;45417;-43
2023/06/30 10:35:54;;;;;;;;;4.50;3.50;;;;;-143.57;100.00;65101.44;5036507;28;45699;-42
2023/06/30 10:38:20;;;;;;;;;5.80;5.80;;;;;-143.57;100.00;65101.44;5036777;28;45996;-42
2023/06/30 10:40:46;;;;;;;;;5.20;4.20;;;;;-143.57;100.00;65101.44;5036113;28;46340;-43
2023/06/30 10:43:13;;;;;;;;;4.00;4.00;;;;;-143.57;100.00;65101.44;5036358;28;45396;-47
2023/06/30 10:46:07;;;;;;;;;5.80;5.00;;;;;-143.57;100.00;65101.44;5036259;28;45342;-41
2023/06/30 10:48:32;;;;;;;;;8.00;6.00;;;;;-143.57;100.00;65101.44;5036287;28;45454;-41
2023/06/30 10:50:58;;;;;;;;;7.00;6.75;;;;;-143.57;100.00;65101.44;5035942;28;46285;-42
2023/06/30 10:53:26;;;;;;;;;9.25;6.00;;;;;-143.57;100.00;65101.44;5036444;28;45443;-42
2023/06/30 10:55:56;;;;;;;;;4.00;4.00;;;;;-143.57;100.00;65101.44;5036416;28;45511;-42
2023/06/30 10:58:23;;;;;;;;;4.40;1.20;;;;;-143.57;100.00;65101.44;5036385;28;45373;-42
2023/06/30 11:01:03;;;;;;;;;6.60;3.20;;;;;-143.57;100.00;65101.44;5035969;28;47251;-42
2023/06/30 11:03:57;;;;;;;;;4.00;4.00;;;;;-143.57;100.00;65101.44;5035493;28;45319;-42